This is the latest recevied weather packets stored in our database for station/object HS2GJW-1. If no packets are shown the sender has not sent any weather packets the latest 10 day(s).
| Time | Temp. | Humidity | Pressure | Rain* | Wind** | Luminosity | Snow |
|---|---|---|---|---|---|---|---|
| 1788168913 | 32.78° C | 84% | 1007 hPa | - | - | 0 W/m² | - |
| 1788168288 | 32.22° C | 86% | 1007 hPa | - | - | 0 W/m² | - |
| 1788167661 | 32.22° C | 86% | 1007 hPa | - | - | 0 W/m² | - |
| 1788167036 | 32.22° C | 87% | 1006 hPa | - | - | 0 W/m² | - |
| 1788166410 | 32.22° C | 87% | 1007 hPa | - | - | 0 W/m² | - |
| 1788165783 | 32.78° C | 85% | 1007 hPa | - | - | 0 W/m² | - |
| 1788165153 | 32.78° C | 86% | 1007 hPa | - | - | 0 W/m² | - |
| 1788164528 | 32.78° C | 84% | 1007 hPa | - | - | 0 W/m² | - |
| 1788163903 | 32.78° C | 84% | 1007 hPa | - | - | 0 W/m² | - |
| 1788163278 | 32.22° C | 83% | 1007 hPa | - | - | 0 W/m² | - |
| 1788162654 | 31.67° C | 85% | 1007 hPa | - | - | 0 W/m² | - |
| 1788136636 | 30.56° C | 99% | 1009 hPa | - | - | 0 W/m² | - |
| 1788136007 | 30° C | 99% | 1009 hPa | - | - | 0 W/m² | - |
| 1788135381 | 30° C | 99% | 1009 hPa | - | - | 0 W/m² | - |
| 1788134754 | 29.44° C | 99% | 1009 hPa | - | - | 0 W/m² | - |
| 1788134128 | 29.44° C | 99% | 1009 hPa | - | - | 0 W/m² | - |
| 1788133504 | 28.89° C | 99% | 1009 hPa | - | - | 0 W/m² | - |
| 1788004223 | 29.44° C | 99% | 1007 hPa | - | - | 0 W/m² | - |
| 1788003599 | 30° C | 99% | 1007 hPa | - | - | 0 W/m² | - |
| 1788002975 | 29.44° C | 99% | 1007 hPa | - | - | 0 W/m² | - |
| 1788002347 | 29.44° C | 99% | 1007 hPa | - | - | 0 W/m² | - |
| 1788001719 | 30° C | 99% | 1007 hPa | - | - | 0 W/m² | - |
| 1788001093 | 30° C | 99% | 1006 hPa | - | - | 0 W/m² | - |
| 1788000475 | 30.56° C | 99% | 1006 hPa | - | - | 0 W/m² | - |
| 1787999838 | 30° C | 99% | 1006 hPa | - | - | 0 W/m² | - |
* Rain since midnight (hover to see other rain measurements)
** Current wind speed in m/s (hover to see current wind gust speed)